sensor_id;sensor_type;location;lat;lon;timestamp;pressure;altitude;pressure_sealevel;temperature
68588;BMP180;55560;52.174;20.996;2023-11-21T00:00:09;99762.60;;;1.10
68588;BMP180;55560;52.174;20.996;2023-11-21T00:03:00;99762.40;;;1.10
68588;BMP180;55560;52.174;20.996;2023-11-21T00:05:28;99762.60;;;1.10
68588;BMP180;55560;52.174;20.996;2023-11-21T00:07:56;99764.00;;;1.10
68588;BMP180;55560;52.174;20.996;2023-11-21T00:10:24;99764.20;;;1.10
68588;BMP180;55560;52.174;20.996;2023-11-21T00:12:51;99766.60;;;1.10
68588;BMP180;55560;52.174;20.996;2023-11-21T00:15:22;99774.20;;;1.10
68588;BMP180;55560;52.174;20.996;2023-11-21T00:17:50;99773.00;;;1.10
68588;BMP180;55560;52.174;20.996;2023-11-21T00:20:18;99779.20;;;1.10
68588;BMP180;55560;52.174;20.996;2023-11-21T00:22:46;99785.00;;;1.04
68588;BMP180;55560;52.174;20.996;2023-11-21T00:25:14;99783.20;;;1.00
68588;BMP180;55560;52.174;20.996;2023-11-21T00:27:43;99786.00;;;1.00
68588;BMP180;55560;52.174;20.996;2023-11-21T00:30:12;99787.80;;;1.00
68588;BMP180;55560;52.174;20.996;2023-11-21T00:32:40;99793.80;;;1.00
68588;BMP180;55560;52.174;20.996;2023-11-21T00:35:08;99794.00;;;1.00
68588;BMP180;55560;52.174;20.996;2023-11-21T00:37:36;99797.40;;;1.10
68588;BMP180;55560;52.174;20.996;2023-11-21T00:40:06;99792.60;;;1.10
68588;BMP180;55560;52.174;20.996;2023-11-21T00:42:34;99796.40;;;1.10
68588;BMP180;55560;52.174;20.996;2023-11-21T00:45:03;99797.40;;;1.20
68588;BMP180;55560;52.174;20.996;2023-11-21T00:47:32;99804.60;;;1.16
68588;BMP180;55560;52.174;20.996;2023-11-21T00:50:01;99807.00;;;1.20
68588;BMP180;55560;52.174;20.996;2023-11-21T00:52:28;99807.40;;;1.20
68588;BMP180;55560;52.174;20.996;2023-11-21T00:54:56;99814.20;;;1.20
68588;BMP180;55560;52.174;20.996;2023-11-21T00:57:26;99816.20;;;1.14
68588;BMP180;55560;52.174;20.996;2023-11-21T00:59:54;99816.80;;;1.10
68588;BMP180;55560;52.174;20.996;2023-11-21T01:02:22;99823.20;;;1.08
68588;BMP180;55560;52.174;20.996;2023-11-21T01:04:50;99822.80;;;1.00
68588;BMP180;55560;52.174;20.996;2023-11-21T01:07:18;99822.60;;;1.00
68588;BMP180;55560;52.174;20.996;2023-11-21T01:09:48;99822.60;;;1.00
68588;BMP180;55560;52.174;20.996;2023-11-21T01:12:16;99820.00;;;1.00
68588;BMP180;55560;52.174;20.996;2023-11-21T01:14:45;99817.20;;;0.98
68588;BMP180;55560;52.174;20.996;2023-11-21T01:17:13;99821.00;;;0.90
68588;BMP180;55560;52.174;20.996;2023-11-21T01:19:41;99825.00;;;0.90
68588;BMP180;55560;52.174;20.996;2023-11-21T01:22:09;99827.00;;;0.90
68588;BMP180;55560;52.174;20.996;2023-11-21T01:24:36;99824.80;;;0.90
68588;BMP180;55560;52.174;20.996;2023-11-21T01:27:04;99831.00;;;0.90
68588;BMP180;55560;52.174;20.996;2023-11-21T01:29:32;99828.60;;;0.80
68588;BMP180;55560;52.174;20.996;2023-11-21T01:32:00;99824.80;;;0.80
68588;BMP180;55560;52.174;20.996;2023-11-21T01:34:28;99831.80;;;0.80
68588;BMP180;55560;52.174;20.996;2023-11-21T01:36:56;99835.20;;;0.70
68588;BMP180;55560;52.174;20.996;2023-11-21T01:39:24;99829.80;;;0.70
68588;BMP180;55560;52.174;20.996;2023-11-21T01:41:53;99833.40;;;0.70
68588;BMP180;55560;52.174;20.996;2023-11-21T01:44:21;99835.40;;;0.70
68588;BMP180;55560;52.174;20.996;2023-11-21T01:46:48;99833.60;;;0.70
68588;BMP180;55560;52.174;20.996;2023-11-21T01:49:17;99834.40;;;0.80
68588;BMP180;55560;52.174;20.996;2023-11-21T01:51:47;99836.00;;;0.80
68588;BMP180;55560;52.174;20.996;2023-11-21T01:54:16;99833.20;;;0.80
68588;BMP180;55560;52.174;20.996;2023-11-21T01:56:46;99837.00;;;0.80
68588;BMP180;55560;52.174;20.996;2023-11-21T01:59:15;99830.40;;;0.80
68588;BMP180;55560;52.174;20.996;2023-11-21T02:01:45;99828.80;;;0.80
68588;BMP180;55560;52.174;20.996;2023-11-21T02:04:14;99834.40;;;0.80
68588;BMP180;55560;52.174;20.996;2023-11-21T02:06:43;99833.60;;;0.80
68588;BMP180;55560;52.174;20.996;2023-11-21T02:09:12;99836.00;;;0.70
68588;BMP180;55560;52.174;20.996;2023-11-21T02:11:43;99833.80;;;0.70
68588;BMP180;55560;52.174;20.996;2023-11-21T02:14:11;99836.80;;;0.70
68588;BMP180;55560;52.174;20.996;2023-11-21T02:16:41;99842.20;;;0.70
68588;BMP180;55560;52.174;20.996;2023-11-21T02:19:18;99847.60;;;0.70
68588;BMP180;55560;52.174;20.996;2023-11-21T02:21:57;99851.60;;;0.70
68588;BMP180;55560;52.174;20.996;2023-11-21T02:24:28;99853.00;;;0.78
68588;BMP180;55560;52.174;20.996;2023-11-21T02:26:56;99852.20;;;0.80
68588;BMP180;55560;52.174;20.996;2023-11-21T02:29:24;99850.60;;;0.80
68588;BMP180;55560;52.174;20.996;2023-11-21T02:31:57;99850.40;;;0.74
68588;BMP180;55560;52.174;20.996;2023-11-21T02:34:25;99847.20;;;0.70
68588;BMP180;55560;52.174;20.996;2023-11-21T02:36:53;99849.80;;;0.66
68588;BMP180;55560;52.174;20.996;2023-11-21T02:39:21;99858.00;;;0.60
68588;BMP180;55560;52.174;20.996;2023-11-21T02:41:52;99866.40;;;0.60
68588;BMP180;55560;52.174;20.996;2023-11-21T02:44:20;99864.00;;;0.54
68588;BMP180;55560;52.174;20.996;2023-11-21T02:46:47;99867.40;;;0.50
68588;BMP180;55560;52.174;20.996;2023-11-21T02:49:15;99868.00;;;0.40
68588;BMP180;55560;52.174;20.996;2023-11-21T02:51:43;99863.60;;;0.40
68588;BMP180;55560;52.174;20.996;2023-11-21T02:54:11;99867.00;;;0.40
68588;BMP180;55560;52.174;20.996;2023-11-21T02:56:39;99866.20;;;0.40
68588;BMP180;55560;52.174;20.996;2023-11-21T02:59:07;99871.00;;;0.40
68588;BMP180;55560;52.174;20.996;2023-11-21T03:01:35;99871.40;;;0.40
68588;BMP180;55560;52.174;20.996;2023-11-21T03:04:03;99864.80;;;0.40
68588;BMP180;55560;52.174;20.996;2023-11-21T03:06:31;99867.20;;;0.40
68588;BMP180;55560;52.174;20.996;2023-11-21T03:08:59;99865.40;;;0.40
68588;BMP180;55560;52.174;20.996;2023-11-21T03:11:28;99867.40;;;0.40
68588;BMP180;55560;52.174;20.996;2023-11-21T03:13:56;99869.60;;;0.40
68588;BMP180;55560;52.174;20.996;2023-11-21T03:16:23;99869.60;;;0.40
68588;BMP180;55560;52.174;20.996;2023-11-21T03:18:51;99868.00;;;0.40
68588;BMP180;55560;52.174;20.996;2023-11-21T03:21:20;99872.00;;;0.40
68588;BMP180;55560;52.174;20.996;2023-11-21T03:23:47;99877.20;;;0.40
68588;BMP180;55560;52.174;20.996;2023-11-21T03:26:15;99878.80;;;0.40
68588;BMP180;55560;52.174;20.996;2023-11-21T03:28:44;99884.80;;;0.40
68588;BMP180;55560;52.174;20.996;2023-11-21T03:31:12;99883.40;;;0.40
68588;BMP180;55560;52.174;20.996;2023-11-21T03:33:39;99886.60;;;0.40
68588;BMP180;55560;52.174;20.996;2023-11-21T03:36:07;99888.80;;;0.40
68588;BMP180;55560;52.174;20.996;2023-11-21T03:38:36;99893.20;;;0.40
68588;BMP180;55560;52.174;20.996;2023-11-21T03:41:04;99889.20;;;0.40
68588;BMP180;55560;52.174;20.996;2023-11-21T03:43:32;99887.60;;;0.32
68588;BMP180;55560;52.174;20.996;2023-11-21T03:46:00;99893.20;;;0.30
68588;BMP180;55560;52.174;20.996;2023-11-21T03:48:28;99894.60;;;0.30
68588;BMP180;55560;52.174;20.996;2023-11-21T03:50:55;99899.40;;;0.30
68588;BMP180;55560;52.174;20.996;2023-11-21T03:53:23;99891.00;;;0.30
68588;BMP180;55560;52.174;20.996;2023-11-21T03:55:51;99893.00;;;0.30
68588;BMP180;55560;52.174;20.996;2023-11-21T03:58:19;99896.20;;;0.30
68588;BMP180;55560;52.174;20.996;2023-11-21T04:00:47;99902.40;;;0.28
68588;BMP180;55560;52.174;20.996;2023-11-21T04:03:16;99902.20;;;0.20
68588;BMP180;55560;52.174;20.996;2023-11-21T04:05:44;99910.60;;;0.20
68588;BMP180;55560;52.174;20.996;2023-11-21T04:08:13;99920.40;;;0.20
68588;BMP180;55560;52.174;20.996;2023-11-21T04:10:41;99913.80;;;0.20
68588;BMP180;55560;52.174;20.996;2023-11-21T04:13:09;99919.80;;;0.12
68588;BMP180;55560;52.174;20.996;2023-11-21T04:15:38;99924.00;;;0.10
68588;BMP180;55560;52.174;20.996;2023-11-21T04:18:05;99920.20;;;0.10
68588;BMP180;55560;52.174;20.996;2023-11-21T04:20:33;99920.40;;;0.10
68588;BMP180;55560;52.174;20.996;2023-11-21T04:23:01;99915.80;;;0.10
68588;BMP180;55560;52.174;20.996;2023-11-21T04:25:29;99921.80;;;0.10
68588;BMP180;55560;52.174;20.996;2023-11-21T04:27:56;99923.60;;;0.20
68588;BMP180;55560;52.174;20.996;2023-11-21T04:30:24;99923.20;;;0.20
68588;BMP180;55560;52.174;20.996;2023-11-21T04:32:52;99922.40;;;0.20
68588;BMP180;55560;52.174;20.996;2023-11-21T04:35:20;99924.60;;;0.30
68588;BMP180;55560;52.174;20.996;2023-11-21T04:37:47;99923.00;;;0.30
68588;BMP180;55560;52.174;20.996;2023-11-21T04:40:16;99924.40;;;0.30
68588;BMP180;55560;52.174;20.996;2023-11-21T04:42:44;99926.80;;;0.30
68588;BMP180;55560;52.174;20.996;2023-11-21T04:45:11;99932.00;;;0.34
68588;BMP180;55560;52.174;20.996;2023-11-21T04:47:40;99941.00;;;0.30
68588;BMP180;55560;52.174;20.996;2023-11-21T04:50:08;99938.00;;;0.30
68588;BMP180;55560;52.174;20.996;2023-11-21T04:52:36;99942.60;;;0.30
68588;BMP180;55560;52.174;20.996;2023-11-21T04:55:04;99939.60;;;0.30
68588;BMP180;55560;52.174;20.996;2023-11-21T04:57:34;99943.00;;;0.30
68588;BMP180;55560;52.174;20.996;2023-11-21T05:00:03;99946.00;;;0.30
68588;BMP180;55560;52.174;20.996;2023-11-21T05:02:33;99946.40;;;0.30
68588;BMP180;55560;52.174;20.996;2023-11-21T05:05:06;99944.60;;;0.30
68588;BMP180;55560;52.174;20.996;2023-11-21T05:07:35;99946.80;;;0.30
68588;BMP180;55560;52.174;20.996;2023-11-21T05:10:07;99948.60;;;0.30
68588;BMP180;55560;52.174;20.996;2023-11-21T05:12:38;99953.40;;;0.30
68588;BMP180;55560;52.174;20.996;2023-11-21T05:15:06;99960.40;;;0.20
68588;BMP180;55560;52.174;20.996;2023-11-21T05:17:36;99960.00;;;0.20
68588;BMP180;55560;52.174;20.996;2023-11-21T05:20:05;99962.40;;;0.10
68588;BMP180;55560;52.174;20.996;2023-11-21T05:22:36;99968.40;;;0.10
68588;BMP180;55560;52.174;20.996;2023-11-21T05:25:05;99967.00;;;0.10
68588;BMP180;55560;52.174;20.996;2023-11-21T05:27:32;99971.00;;;0.10
68588;BMP180;55560;52.174;20.996;2023-11-21T05:30:02;99973.60;;;0.10
68588;BMP180;55560;52.174;20.996;2023-11-21T05:32:33;99974.80;;;0.10
68588;BMP180;55560;52.174;20.996;2023-11-21T05:35:01;99972.40;;;0.10
68588;BMP180;55560;52.174;20.996;2023-11-21T05:37:29;99983.20;;;0.10
68588;BMP180;55560;52.174;20.996;2023-11-21T05:39:57;99986.20;;;0.10
68588;BMP180;55560;52.174;20.996;2023-11-21T05:42:25;99989.20;;;0.10
68588;BMP180;55560;52.174;20.996;2023-11-21T05:44:53;99997.60;;;0.10
68588;BMP180;55560;52.174;20.996;2023-11-21T05:47:20;99996.00;;;0.10
68588;BMP180;55560;52.174;20.996;2023-11-21T05:49:49;99999.80;;;0.10
68588;BMP180;55560;52.174;20.996;2023-11-21T05:52:19;99999.60;;;0.14
68588;BMP180;55560;52.174;20.996;2023-11-21T05:54:48;99996.00;;;0.12
68588;BMP180;55560;52.174;20.996;2023-11-21T05:57:16;99996.80;;;0.14
68588;BMP180;55560;52.174;20.996;2023-11-21T05:59:43;99997.00;;;0.20
68588;BMP180;55560;52.174;20.996;2023-11-21T06:02:11;99997.40;;;0.20
68588;BMP180;55560;52.174;20.996;2023-11-21T06:04:39;100003.80;;;0.20
68588;BMP180;55560;52.174;20.996;2023-11-21T06:07:06;100006.80;;;0.20
68588;BMP180;55560;52.174;20.996;2023-11-21T06:09:34;100014.20;;;0.22
68588;BMP180;55560;52.174;20.996;2023-11-21T06:12:02;100014.20;;;0.26
68588;BMP180;55560;52.174;20.996;2023-11-21T06:14:31;100011.40;;;0.30
68588;BMP180;55560;52.174;20.996;2023-11-21T06:17:02;100010.60;;;0.30
68588;BMP180;55560;52.174;20.996;2023-11-21T06:19:31;100024.40;;;0.24
68588;BMP180;55560;52.174;20.996;2023-11-21T06:21:59;100024.40;;;0.28
68588;BMP180;55560;52.174;20.996;2023-11-21T06:24:29;100031.40;;;0.20
68588;BMP180;55560;52.174;20.996;2023-11-21T06:26:57;100034.40;;;0.20
68588;BMP180;55560;52.174;20.996;2023-11-21T06:29:25;100035.40;;;0.10
68588;BMP180;55560;52.174;20.996;2023-11-21T06:31:53;100036.60;;;0.10
68588;BMP180;55560;52.174;20.996;2023-11-21T06:34:22;100037.40;;;0.10
68588;BMP180;55560;52.174;20.996;2023-11-21T06:36:50;100043.60;;;0.10
68588;BMP180;55560;52.174;20.996;2023-11-21T06:39:19;100044.00;;;0.10
68588;BMP180;55560;52.174;20.996;2023-11-21T06:41:50;100053.60;;;0.10
68588;BMP180;55560;52.174;20.996;2023-11-21T06:44:18;100051.40;;;0.20
68588;BMP180;55560;52.174;20.996;2023-11-21T06:46:47;100056.80;;;0.20
68588;BMP180;55560;52.174;20.996;2023-11-21T06:49:16;100059.20;;;0.20
68588;BMP180;55560;52.174;20.996;2023-11-21T06:51:44;100054.20;;;0.20
68588;BMP180;55560;52.174;20.996;2023-11-21T06:54:11;100062.60;;;0.20
68588;BMP180;55560;52.174;20.996;2023-11-21T06:56:39;100066.60;;;0.20
68588;BMP180;55560;52.174;20.996;2023-11-21T06:59:07;100063.00;;;0.18
68588;BMP180;55560;52.174;20.996;2023-11-21T07:01:36;100065.60;;;0.20
68588;BMP180;55560;52.174;20.996;2023-11-21T07:04:07;100074.20;;;0.20
68588;BMP180;55560;52.174;20.996;2023-11-21T07:06:35;100073.20;;;0.20
68588;BMP180;55560;52.174;20.996;2023-11-21T07:09:03;100079.20;;;0.20
68588;BMP180;55560;52.174;20.996;2023-11-21T07:11:31;100088.60;;;0.20
68588;BMP180;55560;52.174;20.996;2023-11-21T07:14:00;100083.80;;;0.30
68588;BMP180;55560;52.174;20.996;2023-11-21T07:16:35;100087.80;;;0.30
68588;BMP180;55560;52.174;20.996;2023-11-21T07:19:05;100086.80;;;0.30
68588;BMP180;55560;52.174;20.996;2023-11-21T07:21:36;100087.80;;;0.32
68588;BMP180;55560;52.174;20.996;2023-11-21T07:24:04;100087.80;;;0.30
68588;BMP180;55560;52.174;20.996;2023-11-21T07:26:33;100087.20;;;0.28
68588;BMP180;55560;52.174;20.996;2023-11-21T07:29:02;100092.60;;;0.20
68588;BMP180;55560;52.174;20.996;2023-11-21T07:31:33;100100.00;;;0.20
68588;BMP180;55560;52.174;20.996;2023-11-21T07:34:04;100099.40;;;0.20
68588;BMP180;55560;52.174;20.996;2023-11-21T07:36:32;100097.40;;;0.20
68588;BMP180;55560;52.174;20.996;2023-11-21T07:39:00;100110.20;;;0.20
68588;BMP180;55560;52.174;20.996;2023-11-21T07:41:29;100105.60;;;0.10
68588;BMP180;55560;52.174;20.996;2023-11-21T07:43:58;100113.00;;;0.10
68588;BMP180;55560;52.174;20.996;2023-11-21T07:46:26;100105.60;;;0.10
68588;BMP180;55560;52.174;20.996;2023-11-21T07:48:55;100105.80;;;0.20
68588;BMP180;55560;52.174;20.996;2023-11-21T07:51:23;100105.40;;;0.20
68588;BMP180;55560;52.174;20.996;2023-11-21T07:53:50;100101.40;;;0.12
68588;BMP180;55560;52.174;20.996;2023-11-21T07:56:18;100104.40;;;0.10
68588;BMP180;55560;52.174;20.996;2023-11-21T07:58:46;100106.40;;;0.10
68588;BMP180;55560;52.174;20.996;2023-11-21T08:01:14;100108.00;;;0.10
68588;BMP180;55560;52.174;20.996;2023-11-21T08:03:42;100107.20;;;0.10
68588;BMP180;55560;52.174;20.996;2023-11-21T08:06:11;100111.40;;;0.06
68588;BMP180;55560;52.174;20.996;2023-11-21T08:08:39;100102.60;;;0.02
68588;BMP180;55560;52.174;20.996;2023-11-21T08:11:07;100107.00;;;0.10
68588;BMP180;55560;52.174;20.996;2023-11-21T08:13:35;100110.80;;;0.10
68588;BMP180;55560;52.174;20.996;2023-11-21T08:16:04;100114.80;;;0.10
68588;BMP180;55560;52.174;20.996;2023-11-21T08:18:32;100118.60;;;0.16
68588;BMP180;55560;52.174;20.996;2023-11-21T08:21:01;100123.00;;;0.20
68588;BMP180;55560;52.174;20.996;2023-11-21T08:23:30;100132.20;;;0.24
68588;BMP180;55560;52.174;20.996;2023-11-21T08:25:58;100125.40;;;0.30
68588;BMP180;55560;52.174;20.996;2023-11-21T08:28:26;100129.20;;;0.30
68588;BMP180;55560;52.174;20.996;2023-11-21T08:30:54;100132.60;;;0.30
68588;BMP180;55560;52.174;20.996;2023-11-21T08:33:22;100138.80;;;0.30
68588;BMP180;55560;52.174;20.996;2023-11-21T08:35:50;100141.80;;;0.38
68588;BMP180;55560;52.174;20.996;2023-11-21T08:38:18;100143.20;;;0.32
68588;BMP180;55560;52.174;20.996;2023-11-21T08:40:46;100144.60;;;0.40
68588;BMP180;55560;52.174;20.996;2023-11-21T08:43:13;100145.80;;;0.40
68588;BMP180;55560;52.174;20.996;2023-11-21T08:45:43;100150.60;;;0.40
68588;BMP180;55560;52.174;20.996;2023-11-21T08:48:11;100152.80;;;0.40
68588;BMP180;55560;52.174;20.996;2023-11-21T08:50:39;100155.00;;;0.30
68588;BMP180;55560;52.174;20.996;2023-11-21T08:53:07;100154.60;;;0.30
68588;BMP180;55560;52.174;20.996;2023-11-21T08:55:35;100145.80;;;0.36
68588;BMP180;55560;52.174;20.996;2023-11-21T08:58:05;100150.80;;;0.40
68588;BMP180;55560;52.174;20.996;2023-11-21T09:00:33;100152.60;;;0.40
68588;BMP180;55560;52.174;20.996;2023-11-21T09:03:01;100159.20;;;0.30
68588;BMP180;55560;52.174;20.996;2023-11-21T09:05:30;100160.80;;;0.40
68588;BMP180;55560;52.174;20.996;2023-11-21T09:07:57;100163.40;;;0.32
68588;BMP180;55560;52.174;20.996;2023-11-21T09:10:25;100167.40;;;0.34
68588;BMP180;55560;52.174;20.996;2023-11-21T09:12:53;100168.00;;;0.40
68588;BMP180;55560;52.174;20.996;2023-11-21T09:15:21;100166.20;;;0.40
68588;BMP180;55560;52.174;20.996;2023-11-21T09:17:49;100169.80;;;0.40
68588;BMP180;55560;52.174;20.996;2023-11-21T09:20:17;100175.00;;;0.40
68588;BMP180;55560;52.174;20.996;2023-11-21T09:22:45;100178.00;;;0.36
68588;BMP180;55560;52.174;20.996;2023-11-21T09:25:14;100179.00;;;0.30
68588;BMP180;55560;52.174;20.996;2023-11-21T09:27:42;100184.00;;;0.38
68588;BMP180;55560;52.174;20.996;2023-11-21T09:30:10;100186.40;;;0.40
68588;BMP180;55560;52.174;20.996;2023-11-21T09:32:38;100185.20;;;0.40
68588;BMP180;55560;52.174;20.996;2023-11-21T09:35:08;100183.40;;;0.40
68588;BMP180;55560;52.174;20.996;2023-11-21T09:37:37;100187.20;;;0.40
68588;BMP180;55560;52.174;20.996;2023-11-21T09:40:09;100183.80;;;0.40
68588;BMP180;55560;52.174;20.996;2023-11-21T09:42:45;100182.60;;;0.42
68588;BMP180;55560;52.174;20.996;2023-11-21T09:45:24;100182.00;;;0.50
68588;BMP180;55560;52.174;20.996;2023-11-21T09:47:54;100176.80;;;0.58
68588;BMP180;55560;52.174;20.996;2023-11-21T09:50:24;100173.20;;;0.60
68588;BMP180;55560;52.174;20.996;2023-11-21T09:52:57;100172.80;;;0.60
68588;BMP180;55560;52.174;20.996;2023-11-21T09:55:26;100173.00;;;0.60
68588;BMP180;55560;52.174;20.996;2023-11-21T09:57:56;100175.80;;;0.60
68588;BMP180;55560;52.174;20.996;2023-11-21T10:00:25;100176.80;;;0.60
68588;BMP180;55560;52.174;20.996;2023-11-21T10:02:54;100179.60;;;0.60
68588;BMP180;55560;52.174;20.996;2023-11-21T10:05:24;100188.40;;;0.70
68588;BMP180;55560;52.174;20.996;2023-11-21T10:07:56;100187.60;;;0.70
68588;BMP180;55560;52.174;20.996;2023-11-21T10:10:25;100191.20;;;0.70
68588;BMP180;55560;52.174;20.996;2023-11-21T10:12:57;100189.80;;;0.70
68588;BMP180;55560;52.174;20.996;2023-11-21T10:15:30;100191.40;;;0.70
68588;BMP180;55560;52.174;20.996;2023-11-21T10:17:58;100196.20;;;0.78
68588;BMP180;55560;52.174;20.996;2023-11-21T10:20:26;100198.40;;;0.80
68588;BMP180;55560;52.174;20.996;2023-11-21T10:22:54;100202.60;;;0.80
68588;BMP180;55560;52.174;20.996;2023-11-21T10:25:22;100199.00;;;0.80
68588;BMP180;55560;52.174;20.996;2023-11-21T10:27:57;100197.20;;;0.90
68588;BMP180;55560;52.174;20.996;2023-11-21T10:30:28;100195.60;;;0.90
68588;BMP180;55560;52.174;20.996;2023-11-21T10:32:59;100200.00;;;1.00
68588;BMP180;55560;52.174;20.996;2023-11-21T10:35:47;100200.20;;;1.10
68588;BMP180;55560;52.174;20.996;2023-11-21T10:38:19;100196.60;;;1.10
68588;BMP180;55560;52.174;20.996;2023-11-21T10:40:48;100189.40;;;1.20
68588;BMP180;55560;52.174;20.996;2023-11-21T10:43:17;100198.60;;;1.20
68588;BMP180;55560;52.174;20.996;2023-11-21T10:45:46;100200.00;;;1.26
68588;BMP180;55560;52.174;20.996;2023-11-21T10:48:15;100197.00;;;1.30
68588;BMP180;55560;52.174;20.996;2023-11-21T10:50:45;100197.80;;;1.30
68588;BMP180;55560;52.174;20.996;2023-11-21T10:53:13;100201.00;;;1.30
68588;BMP180;55560;52.174;20.996;2023-11-21T10:55:41;100202.60;;;1.30
68588;BMP180;55560;52.174;20.996;2023-11-21T10:58:11;100203.40;;;1.30
68588;BMP180;55560;52.174;20.996;2023-11-21T11:00:41;100205.40;;;1.30
68588;BMP180;55560;52.174;20.996;2023-11-21T11:03:09;100209.40;;;1.28
68588;BMP180;55560;52.174;20.996;2023-11-21T11:05:44;100208.20;;;1.28
68588;BMP180;55560;52.174;20.996;2023-11-21T11:08:22;100205.60;;;1.20
68588;BMP180;55560;52.174;20.996;2023-11-21T11:10:55;100211.80;;;1.10
68588;BMP180;55560;52.174;20.996;2023-11-21T11:13:24;100214.60;;;1.10
68588;BMP180;55560;52.174;20.996;2023-11-21T11:15:59;100215.60;;;1.10
68588;BMP180;55560;52.174;20.996;2023-11-21T11:18:31;100214.40;;;1.10
68588;BMP180;55560;52.174;20.996;2023-11-21T11:21:07;100219.20;;;1.10
68588;BMP180;55560;52.174;20.996;2023-11-21T11:32:16;100220.40;;;1.10
68588;BMP180;55560;52.174;20.996;2023-11-21T11:37:23;100227.40;;;1.10
68588;BMP180;55560;52.174;20.996;2023-11-21T11:39:51;100225.40;;;1.10
68588;BMP180;55560;52.174;20.996;2023-11-21T11:42:19;100231.40;;;1.00
68588;BMP180;55560;52.174;20.996;2023-11-21T11:44:51;100224.60;;;1.00
68588;BMP180;55560;52.174;20.996;2023-11-21T11:47:25;100229.20;;;0.92
68588;BMP180;55560;52.174;20.996;2023-11-21T11:50:07;100232.00;;;1.00
68588;BMP180;55560;52.174;20.996;2023-11-21T11:52:37;100235.60;;;0.98
68588;BMP180;55560;52.174;20.996;2023-11-21T11:55:13;100239.00;;;0.90
68588;BMP180;55560;52.174;20.996;2023-11-21T11:57:42;100234.60;;;0.96
68588;BMP180;55560;52.174;20.996;2023-11-21T12:00:17;100235.60;;;0.96
68588;BMP180;55560;52.174;20.996;2023-11-21T12:03:00;100236.80;;;0.90
68588;BMP180;55560;52.174;20.996;2023-11-21T12:05:32;100235.20;;;0.90
68588;BMP180;55560;52.174;20.996;2023-11-21T12:08:02;100238.20;;;0.90
68588;BMP180;55560;52.174;20.996;2023-11-21T12:10:36;100245.00;;;0.90
68588;BMP180;55560;52.174;20.996;2023-11-21T12:13:08;100247.00;;;0.90
68588;BMP180;55560;52.174;20.996;2023-11-21T12:15:37;100245.00;;;0.88
68588;BMP180;55560;52.174;20.996;2023-11-21T12:18:07;100242.00;;;0.80
68588;BMP180;55560;52.174;20.996;2023-11-21T12:20:35;100251.40;;;0.80
68588;BMP180;55560;52.174;20.996;2023-11-21T12:23:07;100252.40;;;0.80
68588;BMP180;55560;52.174;20.996;2023-11-21T12:25:37;100246.20;;;0.80
68588;BMP180;55560;52.174;20.996;2023-11-21T12:28:09;100247.80;;;0.76
68588;BMP180;55560;52.174;20.996;2023-11-21T12:30:38;100251.00;;;0.74
68588;BMP180;55560;52.174;20.996;2023-11-21T12:33:07;100258.40;;;0.80
68588;BMP180;55560;52.174;20.996;2023-11-21T12:35:38;100256.80;;;0.80
68588;BMP180;55560;52.174;20.996;2023-11-21T12:38:06;100257.80;;;0.80
68588;BMP180;55560;52.174;20.996;2023-11-21T12:40:36;100263.20;;;0.78
68588;BMP180;55560;52.174;20.996;2023-11-21T12:43:04;100262.00;;;0.70
68588;BMP180;55560;52.174;20.996;2023-11-21T12:45:34;100266.40;;;0.78
68588;BMP180;55560;52.174;20.996;2023-11-21T12:48:04;100269.20;;;0.70
68588;BMP180;55560;52.174;20.996;2023-11-21T12:50:37;100266.20;;;0.70
68588;BMP180;55560;52.174;20.996;2023-11-21T12:53:07;100269.40;;;0.70
68588;BMP180;55560;52.174;20.996;2023-11-21T12:55:36;100270.20;;;0.70
68588;BMP180;55560;52.174;20.996;2023-11-21T12:58:07;100275.20;;;0.70
68588;BMP180;55560;52.174;20.996;2023-11-21T13:00:40;100273.00;;;0.70
68588;BMP180;55560;52.174;20.996;2023-11-21T13:03:11;100274.20;;;0.70
68588;BMP180;55560;52.174;20.996;2023-11-21T13:05:46;100280.60;;;0.70
68588;BMP180;55560;52.174;20.996;2023-11-21T13:08:15;100279.20;;;0.70
68588;BMP180;55560;52.174;20.996;2023-11-21T13:10:55;100283.80;;;0.70
68588;BMP180;55560;52.174;20.996;2023-11-21T13:13:27;100286.80;;;0.70
68588;BMP180;55560;52.174;20.996;2023-11-21T13:15:58;100289.60;;;0.60
68588;BMP180;55560;52.174;20.996;2023-11-21T13:18:33;100293.20;;;0.60
68588;BMP180;55560;52.174;20.996;2023-11-21T13:21:03;100294.60;;;0.60
68588;BMP180;55560;52.174;20.996;2023-11-21T13:23:37;100288.60;;;0.50
68588;BMP180;55560;52.174;20.996;2023-11-21T13:26:05;100288.80;;;0.50
68588;BMP180;55560;52.174;20.996;2023-11-21T13:28:35;100296.20;;;0.50
68588;BMP180;55560;52.174;20.996;2023-11-21T13:31:05;100299.80;;;0.40
68588;BMP180;55560;52.174;20.996;2023-11-21T13:33:50;100301.40;;;0.48
68588;BMP180;55560;52.174;20.996;2023-11-21T13:36:24;100302.60;;;0.50
68588;BMP180;55560;52.174;20.996;2023-11-21T13:38:53;100318.60;;;0.50
68588;BMP180;55560;52.174;20.996;2023-11-21T13:41:21;100332.00;;;0.50
68588;BMP180;55560;52.174;20.996;2023-11-21T13:43:58;100324.80;;;0.50
68588;BMP180;55560;52.174;20.996;2023-11-21T13:46:39;100334.40;;;0.50
68588;BMP180;55560;52.174;20.996;2023-11-21T13:49:07;100337.20;;;0.50
68588;BMP180;55560;52.174;20.996;2023-11-21T13:51:38;100343.00;;;0.40
68588;BMP180;55560;52.174;20.996;2023-11-21T13:54:12;100344.60;;;0.40
68588;BMP180;55560;52.174;20.996;2023-11-21T13:56:41;100348.20;;;0.40
68588;BMP180;55560;52.174;20.996;2023-11-21T13:59:13;100358.00;;;0.40
68588;BMP180;55560;52.174;20.996;2023-11-21T14:01:57;100365.40;;;0.40
68588;BMP180;55560;52.174;20.996;2023-11-21T14:04:28;100369.20;;;0.40
68588;BMP180;55560;52.174;20.996;2023-11-21T14:07:08;100373.80;;;0.34
68588;BMP180;55560;52.174;20.996;2023-11-21T14:09:50;100379.00;;;0.34
68588;BMP180;55560;52.174;20.996;2023-11-21T14:12:20;100389.40;;;0.40
68588;BMP180;55560;52.174;20.996;2023-11-21T14:14:49;100392.20;;;0.40
68588;BMP180;55560;52.174;20.996;2023-11-21T14:17:17;100397.60;;;0.40
68588;BMP180;55560;52.174;20.996;2023-11-21T14:19:44;100400.60;;;0.40
68588;BMP180;55560;52.174;20.996;2023-11-21T14:22:12;100403.40;;;0.40
68588;BMP180;55560;52.174;20.996;2023-11-21T14:24:40;100411.80;;;0.40